Prochaines Courses

Connexion

General

ODYSSEE DESVRES du 15/06/14 (Reelle 33)
Rang Dossard Nom Prénom Temps Cat Rang Cat Ecart Ecart Cat Club Vitesse Km/h Temps au Km
1 69 THESSE David CUCHEVAL Mathias 01:40:41   1 00:00:00 00:00:00 COT 19,666 03:03
2 35 DRANSART Adrien MOULLIERE Richard 01:44:09   2 00:03:28 00:03:28 BERCK TRIATHLON 19,011 03:09
3 4 HURTEL David BOUCLET Bastien 01:46:10   3 00:05:29 00:05:29 TEAM OPALE COYOTE 1 18,650 03:13
4 68 DEPANNEMAECKER Eric BRUNOT YOANN 01:49:51   4 00:09:10 00:09:10 CAPONORD DUNKERQUE RAID AVENTURE 18,025 03:20
5 21 GUYOT Fabien MATRINGHEN Tony 01:50:30   5 00:09:49 00:09:49 LES PETITS BAIGNEURS 17,919 03:21
6 85 QUEVAL Jean Jacques BELVILLE   Philippe 01:53:16   6 00:12:35 00:12:35 RETOUR VERS LE FUTUR 17,481 03:26
7 61 BOUTON Rémi RIEZ Gael 01:53:21   7 00:12:40 00:12:40 TIWANAKU CREW 17,468 03:26
8 11 FRANCOIS Gilbert ANDRIEUX Dimitri 01:54:04   8 00:13:23 00:13:23 MARCK'ATHLON 17,358 03:27
9 1 LANDRECIES Loic CROGIEZ José 01:54:14   9 00:13:33 00:13:33 VELOLAND SAINT MARTIN BOULOGNE 17,333 03:28
10 16 CARPENTIER Thierry SUEUR Fabrice 01:54:54   10 00:14:13 00:14:13 SPORT EVASION DES 2 CAPS "LES VETERANS" 17,232 03:29
11 79 LE BEC Mickael PODEVIN Eric 01:55:16   11 00:14:35 00:14:35 LES ACHARNES 17,178 03:30
12 64 BUSSON Elie CABOCHE Antoine 01:55:17   12 00:14:36 00:14:36 TEAM BIANCHI 17,175 03:30
13 92 MAQUINGHEN Christophe DUCLOY Kévin 01:56:46   13 00:16:05 00:16:05 JACK ET DANIELS 16,957 03:32
14 36 QUEVAL Charles Hubert CARRE   Pauline 01:58:17   14 00:17:36 00:17:36 LILLE 2 LA TENTATION 16,739 03:35
15 89 LECOUTRE Thierry DEBETTE Florian 01:59:00   15 00:18:19 00:18:19 TEAM OTN 3 16,639 03:36
16 66 PRIEZ Julien LEMAIRE Benjamin 01:59:09   16 00:18:28 00:18:28 LES NEOPHYTES 16,618 03:37
17 9 MAZURIER Alain PIERRU Reynald 02:00:13   17 00:19:32 00:19:32 LES 2 VENTS TANGUY 16,470 03:39
18 8 VICONGNE Geoffrey FOULON Julien 02:01:58   18 00:21:17 00:21:17 LES PETITS NIN-NINS 16,234 03:42
19 25 PAVY Frédéric PRUVOT Romain 02:02:38   19 00:21:57 00:21:57 ROMOLO 16,146 03:43
20 96 LECENDRE Olivier DUMONT Emmanuel 02:02:54   20 00:22:13 00:22:13 LA DEUXIEME CHANCE 16,111 03:43
21 58 HACHE Nicolas HERENT Martin 02:02:57   21 00:22:16 00:22:16 POUTINE POWER 16,104 03:44
22 87 DEVOLDER Jean-Bernard COURTECUISSE   Julien 02:03:25   22 00:22:44 00:22:44 O'MAX TEAM 16,043 03:44
23 71 RINGUET Fred PERARD Thierry 02:03:55   23 00:23:14 00:23:14 RINGUET-PERARD 15,978 03:45
24 81 LEVEL Fabien NOEL David 02:04:09   24 00:23:28 00:23:28 TEAM CAPELLOIS 15,948 03:46
25 7 DUWAT Fredéric LEVEL Eddy 02:04:52   25 00:24:11 00:24:11 ULYSSE ET TELEMAQUE 15,857 03:47
26 93 DIEUSET Anthony DOYER Laurent 02:05:38   26 00:24:57 00:24:57 OPALE TRAIL NATURE LES JEUNES 15,760 03:48
27 15 MONTIGNY Dimitri GAVOIS Cyril 02:06:35   27 00:25:54 00:25:54 LES JEUNOTS DE SPORT EVASION DES 2 CAPS 15,642 03:50
28 86 LESAGE Franck BOYAVAL Stéphane 02:06:39   28 00:25:58 00:25:58 DUNKERQUE RAID AVENTURE 3 15,634 03:50
29 88 LANGLET Mathieu GOSSELIN Rudy 02:07:20   29 00:26:39 00:26:39 LES COYOTTES 3 15,550 03:52
30 44 GRESSIER Olivier KUSCHNICK Fabrice 02:07:53   30 00:27:12 00:27:12 SPORT ANIM 15,483 03:53
31 73 BARROIS Cédric BARROIS Céline 02:08:08   31 00:27:27 00:27:27 LES CAPELLOIS 15,453 03:53
32 50 GODART Jean Christophe DEPLECHIN   David 02:09:12   32 00:28:31 00:28:31 GO DEP TEAM 15,325 03:55
33 34 MACQUET Bruno GUYOT Rémi 02:09:20   33 00:28:39 00:28:39 OPALE TRAIL NATURE 15,309 03:55
34 47 DELANNOY Bastien LACROIX Olivier 02:09:28   34 00:28:47 00:28:47 LES P'TITS SEINGES 15,294 03:55
35 75 DAVIAUD Fabrice KALOLEWSKI Pascal 02:10:24   35 00:29:43 00:29:43 LA SELEçAO DE SAINTE CECILE 15,184 03:57
36 55 DUFRENNE Jacques DUFRENNE Elise 02:11:07   36 00:30:26 00:30:26 PÈRE ET FILLE ESCAP AVENTURE 15,101 03:58
37 72 CHARBONNIER Grégory CHARBONNIER   Wilfried 02:11:52   37 00:31:11 00:31:11 CHICOUMI 15,015 04:00
38 53 GUERVILLE Maxime SUEUR Samuel 02:12:13   38 00:31:32 00:31:32 THE BEST 14,975 04:00
39 28 MAYE Aubin PREVOST Maxime 02:15:18   39 00:34:37 00:34:37 MAXBIN 14,634 04:06
40 46 FONTAINE Nicolas LEFEBVRE Tony 02:15:22   40 00:34:41 00:34:41 AC OUTREAU NOVICES 14,627 04:06
41 32 PRUD HOMME Mickael MASCOT   Christophe 02:16:25   41 00:35:44 00:35:44 LES LIMACES 14,514 04:08
42 5 HURTRELLE Guyslain FEVRIER Cédric 02:16:26   42 00:35:45 00:35:45 TEAM OPALE COYOTE 2 14,513 04:08
43 59 BELLAMBOIS Stéphane VANDERZYPPE   Ludovic 02:16:44   43 00:36:03 00:36:03 LES 69 14,481 04:09
44 42 LEDEZ Jean-Bernard DUFLOS Henri 02:16:51   44 00:36:10 00:36:10 POMME CANNELLE 14,468 04:09
45 56 DRAVIGNY Thibaud CARON William 02:16:53   45 00:36:12 00:36:12 LES WELSH GROS 14,465 04:09
46 97 HOLUIGUE Frédéric DIERKERS Maxime 02:17:06   46 00:36:25 00:36:25 TEAM DU BAR 14,442 04:09
47 30 FRANCOIS Guillaume FIEVET Arnold 02:17:08   47 00:36:27 00:36:27 NULS ET FIERS DE L ETRE 14,439 04:09
48 65 RAMBURE Dominique LIGNIER Rodolphe 02:17:29   48 00:36:48 00:36:48 LES BOFS 14,402 04:10
49 90 LOYER Virginie POURRE Fabienne 02:17:58   49 00:37:17 00:37:17 L AGENCE TOUT RISQUE 14,351 04:11
50 10 BAILLY François BUTEL David 02:18:16   50 00:37:35 00:37:35 LES BEAUFS 14,320 04:11
51 63 MACQUET Olivier THUILLIER Patrick 02:18:46   51 00:38:05 00:38:05 2DEFOL 14,269 04:12
52 31 LAIDEZ Jonathan VIENNE Samuel 02:18:59   52 00:38:18 00:38:18 TEAM SPORTANIM 14,246 04:13
53 52 DAQUIN Gérard DEFOSSE Alexandra 02:21:01   53 00:40:20 00:40:20 LES EDUCS 14,041 04:16
54 84 KAMINSKI Olivia DEWISPELAERE   Frédéric 02:21:36   54 00:40:55 00:40:55 ARV'ENTURE NORTHWAVE 13,983 04:17
55 76 LECERF Renaud PETA Jeanne estelle 02:22:11   55 00:41:30 00:41:30 ESCAP'AVENTURE MIXTE 13,926 04:19
56 22 GIGADEN Eddy GIGADEN Mathilde 02:22:38   56 00:41:57 00:41:57 EDDY MATH 13,882 04:19
57 80 COMPIEGNE Stéphane FEVRIER Antoine 02:24:13   57 00:43:32 00:43:32 LES GIGOLOS 13,729 04:22
58 18 SEILLIER Christophe RENOUX Yohan 02:24:21   58 00:43:40 00:43:40 LES GUEULARDS 13,717 04:22
59 27 GHYS Gérald TISON Vincent 02:25:07   59 00:44:26 00:44:26 LES Z'ZAMIS 13,644 04:24
60 94 WAROT Antoine GLACON Guillaume 02:26:26   60 00:45:45 00:45:45 LA CUISSE RAID TEAM 13,522 04:26
61 51 DAGHEAUX Armel BODART   Jean-François 02:26:31   61 00:45:50 00:45:50 LES FOLIENS 13,514 04:26
62 43 FIN Fabien FOUTREN Paul 02:26:38   62 00:45:57 00:45:57 LES HERBY OTN 13,503 04:27
63 23 RUITZ Joseph DAMETTE Odile 02:27:04   63 00:46:23 00:46:23 JULBO RUITZ 13,463 04:27
64 26 FILMOTTE Franck HANQUEZ Rudy 02:27:45   64 00:47:04 00:47:04 LES BRIOCHES 13,401 04:29
65 33 RINGARD Julien LIEGEOIS Gaelle 02:29:25   65 00:48:44 00:48:44 LES TOMBES RAIDEUR 13,252 04:32
66 98 TEILLIER Thomas DEBOVE Thomas 02:29:38   66 00:48:57 00:48:57 LES THOMA'S 13,232 04:32
67 24 PRUDHOMME Georges DOUILLY Franck 02:30:02   67 00:49:21 00:49:21 DOUD'HOMME 13,197 04:33
68 39 BOUVILLE Mélanie BRIDENNE Agnès 02:30:36   68 00:49:55 00:49:55 TEAM BACO FILLES 13,147 04:34
69 3 TINCHON Didier VANDENBERGUE   Aurélie 02:31:00   69 00:50:19 00:50:19 TEAM AUREDID 13,113 04:35
70 40 RYCKEBUSCH Stephane RYCKEBUSCH   Marie 02:32:35   70 00:51:54 00:51:54 RYCKY'S 12,977 04:37
71 29 SCHEHR Quentin ROQUIGNY Chloé 02:33:44   71 00:53:03 00:53:03 LES SHETLAND VOLVO 12,879 04:40
72 45 POYER Hortense DAUDIER DE CASSINI   Amicie 02:33:56   72 00:53:15 00:53:15 LES FOYALLE 12,863 04:40
73 77 LECERF Robin LECERF   Bastien 02:34:05   73 00:53:24 00:53:24 LES COUZ D'ESCAP 12,850 04:40
74 67 BAREGE Aurélien SENTUNE Laura 02:35:55   74 00:55:14 00:55:14 L'AURAL'SBAR 12,699 04:43
75 20 DEBAS Gérard ANDRU Reynald 02:36:26   75 00:55:45 00:55:45 FOR EVER 12,657 04:44
76 19 HENOT Romain HERALY Julien 02:36:55   76 00:56:14 00:56:14 THE J.R.H TEAM 12,618 04:45
77 62 LOBERT Vincent HANQUEZ Emmanuel 02:37:14   77 00:56:33 00:56:33 MANU TEAM 12,593 04:46
78 78 QUANDALLE Christophe DEBETTE   Clément 02:39:32   78 00:58:51 00:58:51 LES BOURNONVILLOIS 12,411 04:50
79 38 LEPRETRE Charles GENTIT Berangère 02:39:49   79 00:59:08 00:59:08 LES NOVICES 12,389 04:51
80 95 DELIANCOURT Laurent LECLERC   Laurent 02:42:10   80 01:01:29 01:01:29 LES CHTIOS 12,210 04:55
81 41 NEANT Stéphanie TKACZ Olivier 02:44:24   81 01:03:43 01:03:43 LES TOUQUETTOIS 12,044 04:59
82 91 DE MONESTEL Frédérique ZYBENA Marc 02:46:35   82 01:05:54 01:05:54 BREAKRAIDERS 11,886 05:03
83 54 BUCKMAN Laetitia BOYAVAL Charlotte 02:48:28   83 01:07:47 01:07:47 DUNKERQUE RAID AVENTURE 11,753 05:06
84 60 VANDERZYPPE Catherine LESAGE   Magali 02:50:58   84 01:10:17 01:10:17 BANANAS 11,581 05:11
85 82 DELATTRE David BULOT Stéphane 02:54:04   85 01:13:23 01:13:23 LES ZOULOUS 11,375 05:16
86 2 BLOUIN Samuel BLOUIN Delphine 03:02:38   86 01:21:57 01:21:57 LES SAMOUREUX 10,841 05:32
87 57 GUERVILLE Noémie BEZEAU Thibault 03:06:05   87 01:25:24 01:25:24 COUSIN & COUSINE 10,640 05:38
88 48 SEIGNEUR Carole GENNEBAUD Olivier 03:07:23   88 01:26:42 01:26:42 LES GROS SEINGES 10,567 05:41
89 14 DUCLOY Alexandra SUEUR Mélanie 03:23:07   89 01:42:26 01:42:26 LES SENEGAZELLES DE SPORT EVASION DES 2 CAPS 9,748 06:09
90 6 BILLIET Adrien FLAHAUT Cyril 02:01:06   90     NO STRESS    
91 83 CAMPAGNE Sandra CUENOT Alban 02:33:54   91     LES ZINZINS    
92 70 MILLE Sébastien DUCROCQ Marc Antoine 00:28:22   92     LES BOFS 2    
93 37 AIGOUY Damien CUCHEVAL Florence 00:32:05   93     LYS CALAIS TRI